Time;durP1;ratioP1;P1;durP2;ratioP2;P2;SDS_P1;SDS_P2;PMS_P1;PMS_P2;Temp;Humidity;BMP_temperature;BMP_pressure;BME280_temperature;BME280_humidity;BME280_pressure;Samples;Min_cycle;Max_cycle;Signal;HPM_P1;HPM_P2
2023/01/16 00:01:12;;;;;;;0.50;0.50;;;4.50;99.90;4.40;99241.00;;;;4970742;28;88196;-67
2023/01/16 00:03:38;;;;;;;0.50;0.33;;;4.50;99.90;4.30;99236.00;;;;4965566;28;103390;-66
2023/01/16 00:06:04;;;;;;;0.30;0.30;;;4.50;99.90;4.30;99236.00;;;;4966467;28;108486;-66
2023/01/16 00:08:30;;;;;;;0.30;0.20;;;4.50;99.90;4.30;99238.00;;;;4974455;28;87998;-66
2023/01/16 00:10:56;;;;;;;0.20;0.20;;;4.40;99.90;4.30;99231.00;;;;4969365;28;117684;-68
2023/01/16 00:13:22;;;;;;;0.43;0.43;;;4.40;99.90;4.20;99231.00;;;;4974362;28;117786;-66
2023/01/16 00:15:51;;;;;;;0.50;0.50;;;4.80;99.90;4.20;99225.00;;;;4973874;28;110629;-65
2023/01/16 00:18:17;;;;;;;0.47;0.37;;;4.40;99.90;4.20;99222.00;;;;4974119;28;87991;-68
2023/01/16 00:20:43;;;;;;;0.80;0.30;;;4.40;99.90;4.20;99213.00;;;;4973359;27;88355;-67
2023/01/16 00:23:10;;;;;;;0.97;0.30;;;3.90;99.90;4.20;99207.00;;;;4969761;28;112595;-66
2023/01/16 00:25:41;;;;;;;1.60;0.50;;;4.30;99.90;4.20;99203.00;;;;4967435;28;88025;-68
2023/01/16 00:28:08;;;;;;;2.30;0.43;;;4.40;99.90;4.30;99198.00;;;;4971181;28;87924;-66
2023/01/16 00:30:34;;;;;;;0.33;0.33;;;4.40;99.90;4.30;99201.00;;;;4968233;28;110332;-68
2023/01/16 00:33:00;;;;;;;0.40;0.40;;;4.40;99.90;4.30;99201.00;;;;4968920;28;88050;-66
2023/01/16 00:35:26;;;;;;;0.40;0.37;;;4.40;99.90;4.40;99201.00;;;;4965670;28;111200;-68
2023/01/16 00:37:52;;;;;;;0.93;0.60;;;4.50;99.90;4.40;99206.00;;;;4966144;28;87908;-66
2023/01/16 00:40:18;;;;;;;0.30;0.20;;;4.60;99.90;4.50;99191.00;;;;4968711;28;90961;-66
2023/01/16 00:42:44;;;;;;;0.80;0.30;;;4.70;99.90;4.60;99198.00;;;;4966050;28;111106;-67
2023/01/16 00:45:10;;;;;;;0.10;0.10;;;4.70;99.90;4.60;99209.00;;;;4969790;28;110392;-66
2023/01/16 00:47:36;;;;;;;1.83;0.37;;;4.80;99.90;4.70;99198.00;;;;4972141;28;98089;-68
2023/01/16 00:50:03;;;;;;;0.40;0.40;;;5.40;99.90;4.70;99202.00;;;;4971949;28;118568;-66
2023/01/16 00:52:28;;;;;;;0.60;0.27;;;4.80;99.90;4.70;99196.00;;;;4969625;28;87941;-68
2023/01/16 00:54:54;;;;;;;0.73;0.33;;;5.50;99.90;4.70;99191.00;;;;4972743;28;105414;-68
2023/01/16 00:57:20;;;;;;;2.10;0.30;;;5.60;99.90;4.70;99192.00;;;;4973220;28;109151;-67
2023/01/16 00:59:45;;;;;;;0.20;0.20;;;5.00;99.90;4.70;99193.00;;;;4970227;28;117133;-66
2023/01/16 01:02:11;;;;;;;0.40;0.30;;;5.30;99.90;4.60;99199.00;;;;4966932;28;116791;-66
2023/01/16 01:04:37;;;;;;;0.60;0.20;;;4.80;99.90;4.60;99200.00;;;;4969864;28;104382;-66
2023/01/16 01:07:02;;;;;;;0.60;0.60;;;4.80;99.90;4.50;99193.00;;;;4970333;28;108904;-65
2023/01/16 01:09:28;;;;;;;0.30;0.30;;;4.70;99.90;4.50;99195.00;;;;4970496;28;114047;-66
2023/01/16 01:11:57;;;;;;;0.30;0.30;;;5.30;99.90;4.50;99195.00;;;;4968956;28;117492;-69
2023/01/16 01:14:24;;;;;;;0.60;0.40;;;4.60;99.90;4.40;99182.00;;;;4972609;28;87954;-68
2023/01/16 01:16:50;;;;;;;0.70;0.70;;;4.60;99.90;4.30;99180.00;;;;4972475;28;87865;-66
2023/01/16 01:19:16;;;;;;;0.40;0.23;;;4.40;99.90;4.30;99180.00;;;;4971940;27;93181;-67
2023/01/16 01:21:42;;;;;;;2.93;0.30;;;4.50;99.90;4.20;99173.00;;;;4973036;28;87994;-68
2023/01/16 01:24:08;;;;;;;1.33;0.80;;;4.40;99.90;4.10;99162.00;;;;4968128;28;97181;-68
2023/01/16 01:26:34;;;;;;;0.57;0.33;;;4.30;99.90;4.00;99169.00;;;;4969755;28;87863;-68
2023/01/16 01:29:00;;;;;;;0.30;0.30;;;4.20;99.90;4.00;99166.00;;;;4969096;28;107793;-67
2023/01/16 01:31:25;;;;;;;0.40;0.40;;;4.20;99.90;3.90;99154.00;;;;4967694;28;88873;-69
2023/01/16 01:33:51;;;;;;;3.70;0.70;;;4.10;99.90;3.80;99148.00;;;;4968330;28;109561;-70
2023/01/16 01:36:17;;;;;;;1.40;0.70;;;4.00;99.90;3.70;99152.00;;;;4971415;28;88959;-68
2023/01/16 01:38:42;;;;;;;0.23;0.13;;;4.00;99.90;3.60;99161.00;;;;4966030;28;116851;-66
2023/01/16 01:41:13;;;;;;;0.83;0.40;;;3.80;99.90;3.60;99158.00;;;;4971931;28;88488;-67
2023/01/16 01:43:49;;;;;;;0.40;0.40;;;3.80;99.90;3.60;99158.00;;;;4966508;28;87906;-68
2023/01/16 01:46:25;;;;;;;0.23;0.23;;;3.80;99.90;3.50;99160.00;;;;4986217;28;87900;-67
2023/01/16 01:48:58;;;;;;;0.40;0.40;;;3.80;99.90;3.50;99165.00;;;;4970783;28;88488;-67
2023/01/16 01:51:31;;;;;;;0.80;0.47;;;3.80;99.90;3.40;99167.00;;;;4969339;28;87779;-67
2023/01/16 01:54:04;;;;;;;1.03;0.50;;;3.60;99.90;3.30;99154.00;;;;4971951;28;86982;-66
2023/01/16 01:56:45;;;;;;;0.13;0.13;;;3.50;99.90;3.20;99157.00;;;;4971768;28;91813;-66
2023/01/16 01:59:16;;;;;;;0.83;0.27;;;3.60;99.90;3.20;99155.00;;;;4969421;28;102694;-66
2023/01/16 02:01:42;;;;;;;1.07;0.70;;;3.30;99.90;3.10;99157.00;;;;4972331;28;106137;-66
2023/01/16 02:04:15;;;;;;;1.40;0.80;;;3.30;99.90;3.00;99158.00;;;;4974797;28;94516;-66
2023/01/16 02:06:44;;;;;;;1.00;0.60;;;3.30;99.90;3.00;99151.00;;;;4969473;28;87919;-67
2023/01/16 02:09:11;;;;;;;1.57;0.50;;;3.20;99.90;3.00;99157.00;;;;4971255;28;105326;-66
2023/01/16 02:11:56;;;;;;;0.30;0.30;;;3.10;99.90;2.90;99146.00;;;;4972827;28;105213;-66
2023/01/16 02:14:24;;;;;;;0.63;0.60;;;3.20;99.90;2.90;99155.00;;;;4970131;28;88141;-66
2023/01/16 02:20:12;;;;;;;0.93;0.53;;;3.10;99.90;2.80;99144.00;;;;4974761;28;87326;-68
2023/01/16 02:23:17;;;;;;;1.53;0.80;;;3.10;99.90;2.90;99142.00;;;;4967936;28;106459;-68
2023/01/16 02:26:12;;;;;;;0.57;0.57;;;3.10;99.90;3.00;99139.00;;;;4970443;28;87675;-69
2023/01/16 02:29:01;;;;;;;0.30;0.30;;;3.10;99.90;3.00;99124.00;;;;4973067;28;88873;-67
2023/01/16 02:32:03;;;;;;;0.30;0.30;;;3.20;99.90;3.10;99112.00;;;;4969562;28;100200;-66
2023/01/16 02:35:27;;;;;;;1.23;0.50;;;3.40;99.90;3.10;99112.00;;;;4953919;28;89050;-66
2023/01/16 02:38:30;;;;;;;2.27;0.63;;;3.30;99.90;3.20;99106.00;;;;4895844;28;101869;-69
2023/01/16 02:41:13;;;;;;;0.20;0.20;;;3.40;99.90;3.30;99107.00;;;;4972820;28;100828;-69
2023/01/16 02:44:18;;;;;;;0.20;0.20;;;4.00;99.90;3.30;99107.00;;;;4971820;28;88132;-67
2023/01/16 02:47:16;;;;;;;2.47;0.50;;;3.50;99.90;3.30;99096.00;;;;4969379;28;106240;-66
2023/01/16 02:49:49;;;;;;;0.23;0.23;;;3.50;99.90;3.40;99096.00;;;;4972376;28;87042;-67
2023/01/16 02:52:32;;;;;;;0.53;0.50;;;3.60;99.90;3.40;99089.00;;;;4970754;28;101783;-68
2023/01/16 02:55:26;;;;;;;0.30;0.30;;;2.90;99.90;3.40;99085.00;;;;4971112;28;88999;-66
2023/01/16 02:58:01;;;;;;;0.40;0.40;;;3.70;99.90;3.50;99083.00;;;;4971662;28;108258;-66
2023/01/16 03:00:28;;;;;;;0.77;0.40;;;3.70;99.90;3.50;99081.00;;;;4971979;28;87647;-67
2023/01/16 03:02:53;;;;;;;2.73;0.30;;;3.70;99.90;3.50;99082.00;;;;4969987;28;108537;-65
2023/01/16 03:05:19;;;;;;;0.40;0.30;;;3.80;99.90;3.50;99069.00;;;;4969224;28;94633;-65
2023/01/16 03:08:16;;;;;;;0.87;0.60;;;3.70;99.90;3.50;99079.00;;;;4965882;28;118003;-67
2023/01/16 03:11:09;;;;;;;0.43;0.30;;;3.70;99.90;3.50;99073.00;;;;4968723;28;87765;-67
2023/01/16 03:13:49;;;;;;;0.30;0.30;;;3.80;99.90;3.50;99068.00;;;;4968245;28;87812;-67
2023/01/16 03:16:49;;;;;;;0.10;0.10;;;4.50;99.90;3.50;99061.00;;;;4968120;28;87546;-66
2023/01/16 03:19:43;;;;;;;0.80;0.67;;;3.70;99.90;3.40;99044.00;;;;4967305;28;88086;-66
2023/01/16 03:22:20;;;;;;;0.53;0.53;;;3.60;99.90;3.30;99047.00;;;;4969486;28;87712;-66
2023/01/16 03:25:26;;;;;;;0.20;0.20;;;3.60;99.90;3.20;99036.00;;;;4969284;28;89018;-66
2023/01/16 03:28:36;;;;;;;1.70;0.70;;;4.40;99.90;3.10;99032.00;;;;4950005;28;96435;-65
2023/01/16 03:31:22;;;;;;;0.20;0.20;;;3.50;99.90;3.10;99029.00;;;;4970304;28;87744;-67
2023/01/16 03:34:02;;;;;;;0.40;0.33;;;3.40;99.90;3.00;99033.00;;;;4971968;28;88018;-67
2023/01/16 03:36:49;;;;;;;0.10;0.10;;;3.30;99.90;3.00;99014.00;;;;4969690;28;88029;-66
2023/01/16 03:39:22;;;;;;;0.93;0.40;;;3.30;99.90;2.90;99020.00;;;;4966856;28;90852;-67
2023/01/16 03:41:49;;;;;;;0.70;0.60;;;3.30;99.90;3.00;99022.00;;;;4966532;28;88125;-65
2023/01/16 03:44:29;;;;;;;1.17;0.60;;;3.20;99.90;2.90;99021.00;;;;4969610;28;101692;-68
2023/01/16 03:46:56;;;;;;;0.50;0.50;;;3.20;99.90;3.00;99013.00;;;;4967716;28;89882;-65
2023/01/16 03:49:34;;;;;;;0.40;0.33;;;3.20;99.90;2.90;99020.00;;;;4971841;28;117644;-66
2023/01/16 03:52:04;;;;;;;3.67;0.73;;;3.20;99.90;2.90;99013.00;;;;4974309;28;90631;-65
2023/01/16 03:54:48;;;;;;;0.83;0.40;;;3.10;99.90;2.90;99010.00;;;;4968010;28;87985;-68
2023/01/16 03:57:29;;;;;;;0.73;0.43;;;3.10;99.90;2.80;99004.00;;;;4969012;28;101484;-66
2023/01/16 03:59:55;;;;;;;3.67;1.20;;;3.10;99.90;2.80;99001.00;;;;4984969;27;103680;-65
2023/01/16 04:02:30;;;;;;;1.53;0.50;;;3.10;99.90;2.80;99008.00;;;;4968988;28;117187;-66
2023/01/16 04:05:08;;;;;;;0.47;0.47;;;3.00;99.90;2.70;98991.00;;;;4954806;28;87752;-65
2023/01/16 04:07:56;;;;;;;2.63;0.40;;;3.00;99.90;2.70;98982.00;;;;4971391;28;101180;-67
2023/01/16 04:10:28;;;;;;;0.47;0.40;;;3.00;99.90;2.70;98986.00;;;;4954608;28;111351;-68
2023/01/16 04:13:03;;;;;;;1.27;0.73;;;2.90;99.90;2.60;98984.00;;;;4973364;28;107737;-68
2023/01/16 04:15:32;;;;;;;0.93;0.77;;;2.80;99.90;2.60;98975.00;;;;4972001;28;88030;-66
2023/01/16 04:17:58;;;;;;;0.40;0.40;;;2.90;99.90;2.70;98975.00;;;;4973554;28;89091;-65
2023/01/16 04:20:26;;;;;;;0.40;0.40;;;2.80;99.90;2.60;98958.00;;;;4983172;28;88169;-67
2023/01/16 04:22:51;;;;;;;2.43;0.90;;;3.80;99.90;2.60;98963.00;;;;4978742;28;87942;-66
2023/01/16 04:25:19;;;;;;;0.70;0.50;;;3.70;99.90;2.60;98957.00;;;;4974663;28;110962;-65
2023/01/16 04:27:45;;;;;;;0.90;0.90;;;2.80;99.90;2.50;98952.00;;;;4972784;28;87915;-67
2023/01/16 04:30:11;;;;;;;1.43;0.70;;;2.80;99.90;2.50;98960.00;;;;4974070;28;116935;-66
2023/01/16 04:32:37;;;;;;;1.73;0.53;;;2.80;99.90;2.50;98942.00;;;;4968815;28;110287;-66
2023/01/16 04:35:04;;;;;;;0.60;0.50;;;2.70;99.90;2.50;98939.00;;;;4970663;28;87307;-65
2023/01/16 04:37:30;;;;;;;1.23;0.70;;;2.70;99.90;2.50;98942.00;;;;4972340;28;87943;-67
2023/01/16 04:39:56;;;;;;;26.93;13.27;;;2.70;99.90;2.50;98949.00;;;;4969426;28;116085;-65
2023/01/16 04:42:21;;;;;;;22.07;14.13;;;2.70;99.90;2.50;98940.00;;;;4968584;28;94156;-66
2023/01/16 04:44:47;;;;;;;7.93;6.10;;;2.70;99.90;2.40;98931.00;;;;4967155;28;112767;-65
2023/01/16 04:47:13;;;;;;;4.10;1.63;;;2.80;99.90;2.40;98930.00;;;;4970000;28;89363;-67
2023/01/16 04:49:38;;;;;;;4.47;0.67;;;2.60;99.90;2.40;98930.00;;;;4971633;28;88346;-67
2023/01/16 04:52:04;;;;;;;0.40;0.40;;;2.80;99.90;2.40;98914.00;;;;4972164;28;116963;-65
2023/01/16 04:54:30;;;;;;;1.17;0.83;;;2.90;99.90;2.40;98901.00;;;;4969917;28;96598;-66
2023/01/16 04:56:56;;;;;;;2.17;0.60;;;2.60;99.90;2.40;98907.00;;;;4970081;28;107743;-65
2023/01/16 04:59:21;;;;;;;3.17;0.67;;;2.70;99.90;2.40;98910.00;;;;4972725;28;101913;-65
2023/01/16 05:01:48;;;;;;;2.77;0.57;;;2.70;99.90;2.40;98909.00;;;;4968019;28;105667;-65
2023/01/16 05:04:15;;;;;;;1.33;0.87;;;2.60;99.90;2.40;98913.00;;;;4971388;28;100401;-65
2023/01/16 05:06:41;;;;;;;1.53;1.30;;;2.60;99.90;2.40;98910.00;;;;4973663;28;88762;-67
2023/01/16 05:09:07;;;;;;;1.03;0.93;;;2.60;99.90;2.30;98906.00;;;;4970500;28;100516;-65
2023/01/16 05:11:33;;;;;;;1.50;0.90;;;2.60;99.90;2.30;98915.00;;;;4971151;28;88892;-65
2023/01/16 05:14:00;;;;;;;1.00;0.83;;;2.50;99.90;2.30;98898.00;;;;4974056;28;87941;-66
2023/01/16 05:16:26;;;;;;;1.20;1.10;;;2.50;99.90;2.20;98898.00;;;;4970224;28;98064;-67
2023/01/16 05:18:52;;;;;;;1.27;0.97;;;2.50;99.90;2.20;98893.00;;;;4969993;28;89072;-66
2023/01/16 05:21:18;;;;;;;1.07;0.83;;;3.40;99.90;2.20;98877.00;;;;4972277;28;117863;-64
2023/01/16 05:23:43;;;;;;;1.20;1.10;;;3.20;99.90;2.30;98880.00;;;;4974393;28;110302;-66
2023/01/16 05:26:09;;;;;;;2.67;1.50;;;3.50;99.90;2.30;98880.00;;;;4971608;28;88104;-67
2023/01/16 05:28:35;;;;;;;1.30;1.20;;;2.50;99.90;2.30;98874.00;;;;4971588;28;109439;-66
2023/01/16 05:31:02;;;;;;;1.50;1.40;;;2.50;99.90;2.30;98865.00;;;;4970876;28;95625;-68
2023/01/16 05:33:28;;;;;;;2.37;1.97;;;2.60;99.90;2.30;98866.00;;;;4971847;28;88012;-67
2023/01/16 05:35:55;;;;;;;1.97;1.77;;;2.50;99.90;2.30;98861.00;;;;4972559;28;88055;-67
2023/01/16 05:38:21;;;;;;;2.03;1.57;;;2.60;99.90;2.40;98852.00;;;;4971362;28;99586;-66
2023/01/16 05:40:46;;;;;;;1.33;1.23;;;2.60;99.90;2.40;98853.00;;;;4973007;28;88061;-68
2023/01/16 05:43:13;;;;;;;2.33;1.83;;;2.60;99.90;2.40;98841.00;;;;4970644;28;87828;-66
2023/01/16 05:45:39;;;;;;;2.57;1.67;;;2.60;99.90;2.40;98836.00;;;;4972870;28;89135;-68
2023/01/16 05:48:05;;;;;;;3.67;0.80;;;2.60;99.90;2.40;98851.00;;;;4973671;28;116806;-68
2023/01/16 05:50:31;;;;;;;2.70;0.87;;;2.50;99.90;2.40;98849.00;;;;4972294;28;117717;-66
2023/01/16 05:52:57;;;;;;;1.90;1.00;;;2.60;99.90;2.40;98850.00;;;;4973023;28;110656;-66
2023/01/16 05:55:23;;;;;;;2.40;0.90;;;2.60;99.90;2.40;98854.00;;;;4967630;28;89054;-68
2023/01/16 05:57:49;;;;;;;1.40;1.30;;;3.00;99.90;2.30;98854.00;;;;4969263;28;98476;-67
2023/01/16 06:00:15;;;;;;;1.63;1.33;;;2.60;99.90;2.30;98852.00;;;;4969154;28;87798;-66
2023/01/16 06:02:41;;;;;;;2.37;1.80;;;2.60;99.90;2.30;98849.00;;;;4969405;28;99037;-67
2023/01/16 06:05:07;;;;;;;0.70;0.70;;;2.60;99.90;2.40;98852.00;;;;4970004;28;108053;-66
2023/01/16 06:07:33;;;;;;;1.20;1.10;;;2.60;99.90;2.40;98857.00;;;;4970915;28;88786;-65
2023/01/16 06:09:59;;;;;;;1.73;1.63;;;2.60;99.90;2.40;98848.00;;;;4971523;28;88019;-65
2023/01/16 06:12:24;;;;;;;1.50;1.37;;;2.60;99.90;2.40;98838.00;;;;4969915;28;110280;-65
2023/01/16 06:14:50;;;;;;;0.93;0.70;;;2.60;99.90;2.40;98826.00;;;;4969618;28;106848;-67
2023/01/16 06:17:16;;;;;;;0.97;0.60;;;2.70;99.90;2.40;98825.00;;;;4969763;28;105419;-65
2023/01/16 06:19:43;;;;;;;2.13;0.87;;;2.70;99.90;2.40;98833.00;;;;4969740;28;89031;-67
2023/01/16 06:22:09;;;;;;;1.27;1.17;;;2.70;99.90;2.40;98827.00;;;;4967343;28;89121;-66
2023/01/16 06:24:34;;;;;;;6.10;1.37;;;2.60;99.90;2.50;98819.00;;;;4971960;28;101864;-65
2023/01/16 06:27:00;;;;;;;1.50;0.80;;;3.00;99.90;2.50;98826.00;;;;4971197;28;117616;-67
2023/01/16 06:29:26;;;;;;;3.83;0.77;;;2.60;99.90;2.50;98809.00;;;;4968131;28;117157;-66
2023/01/16 06:31:51;;;;;;;1.33;0.83;;;2.70;99.90;2.50;98821.00;;;;4970510;28;110692;-67
2023/01/16 06:34:17;;;;;;;0.80;0.80;;;2.70;99.90;2.60;98812.00;;;;4966494;28;108725;-67
2023/01/16 06:36:45;;;;;;;2.93;0.87;;;3.60;99.90;2.60;98811.00;;;;4966694;28;117119;-66
2023/01/16 06:39:11;;;;;;;0.80;0.70;;;2.70;99.90;2.60;98806.00;;;;4970049;28;88143;-67
2023/01/16 06:41:37;;;;;;;1.03;0.83;;;3.40;99.90;2.60;98802.00;;;;4971905;27;87680;-65
2023/01/16 06:44:03;;;;;;;0.77;0.63;;;2.40;99.90;2.60;98785.00;;;;4970413;28;100495;-67
2023/01/16 06:46:29;;;;;;;1.63;0.93;;;2.80;99.90;2.70;98782.00;;;;4970763;28;109536;-67
2023/01/16 06:48:54;;;;;;;2.20;0.97;;;2.80;99.90;2.70;98774.00;;;;4971286;28;104856;-65
2023/01/16 06:51:20;;;;;;;2.10;0.93;;;2.90;99.90;2.80;98784.00;;;;4973262;28;110172;-65
2023/01/16 06:53:46;;;;;;;1.53;0.93;;;2.90;99.90;2.90;98775.00;;;;4968403;28;109065;-64
2023/01/16 06:56:11;;;;;;;0.60;0.60;;;3.60;99.90;2.90;98785.00;;;;4968535;28;101903;-68
2023/01/16 06:58:37;;;;;;;1.50;0.93;;;3.00;99.90;2.90;98775.00;;;;4968220;28;107683;-68
2023/01/16 07:01:03;;;;;;;0.83;0.83;;;3.10;99.90;3.00;98786.00;;;;4971388;28;107494;-67
2023/01/16 07:03:28;;;;;;;0.77;0.77;;;3.20;99.90;3.10;98771.00;;;;4972819;28;87654;-67
2023/01/16 07:05:54;;;;;;;0.97;0.97;;;3.20;99.90;3.10;98765.00;;;;4972083;28;87992;-66
2023/01/16 07:08:19;;;;;;;2.53;0.80;;;3.30;99.90;3.20;98777.00;;;;4968415;28;118113;-66
2023/01/16 07:10:45;;;;;;;0.63;0.33;;;3.30;99.90;3.20;98775.00;;;;4972189;28;110294;-67
2023/01/16 07:13:11;;;;;;;0.83;0.80;;;3.40;99.90;3.30;98782.00;;;;4970204;28;94254;-68
2023/01/16 07:24:06;;;;;;;2.87;0.83;;;3.70;99.90;3.60;98788.00;;;;4971045;28;87830;-65
2023/01/16 07:26:34;;;;;;;0.73;0.70;;;3.80;99.90;3.60;98780.00;;;;4971323;28;111123;-65
2023/01/16 07:29:02;;;;;;;1.00;0.67;;;3.70;99.90;3.70;98773.00;;;;4970899;28;91180;-64
2023/01/16 07:31:28;;;;;;;1.87;0.63;;;3.80;99.90;3.70;98779.00;;;;4971411;28;88116;-66
2023/01/16 07:33:54;;;;;;;0.43;0.40;;;3.90;99.90;3.70;98771.00;;;;4971070;28;108315;-65
2023/01/16 07:36:20;;;;;;;2.10;0.60;;;4.00;99.90;3.80;98782.00;;;;4972433;28;119205;-65
2023/01/16 07:38:45;;;;;;;2.60;0.77;;;4.70;99.90;3.80;98770.00;;;;4974658;28;118559;-66
2023/01/16 07:41:11;;;;;;;1.13;0.83;;;3.90;99.90;3.80;98767.00;;;;4975193;28;87725;-68
2023/01/16 07:43:37;;;;;;;1.37;0.80;;;3.90;99.90;3.90;98770.00;;;;4968231;28;108287;-66
2023/01/16 07:46:02;;;;;;;7.53;0.83;;;3.60;99.90;3.90;98765.00;;;;4974541;28;110733;-66
2023/01/16 07:48:28;;;;;;;2.90;0.60;;;4.10;99.90;3.90;98762.00;;;;4970210;28;87961;-65
2023/01/16 07:50:57;;;;;;;1.00;0.80;;;4.10;99.90;4.00;98762.00;;;;4985079;28;109209;-67
2023/01/16 07:53:26;;;;;;;1.80;0.63;;;4.20;99.90;4.00;98756.00;;;;4962658;28;88060;-66
2023/01/16 07:55:58;;;;;;;0.90;0.90;;;5.00;99.90;4.00;98746.00;;;;4979037;28;89089;-65
2023/01/16 07:58:24;;;;;;;0.67;0.53;;;4.20;99.90;4.00;98743.00;;;;4978666;28;88916;-66
2023/01/16 08:00:53;;;;;;;0.60;0.50;;;4.10;99.90;4.10;98747.00;;;;4975175;28;94113;-66
2023/01/16 08:03:19;;;;;;;0.80;0.80;;;4.20;99.90;4.10;98732.00;;;;4976575;28;88665;-65
2023/01/16 08:05:45;;;;;;;0.93;0.83;;;4.30;99.90;4.20;98727.00;;;;4972022;28;88340;-68
2023/01/16 08:08:12;;;;;;;0.60;0.50;;;4.30;99.90;4.20;98727.00;;;;4975182;28;111367;-65
2023/01/16 08:10:38;;;;;;;0.53;0.50;;;4.50;99.90;4.20;98722.00;;;;4973616;28;88166;-67
2023/01/16 08:13:04;;;;;;;0.57;0.53;;;4.40;99.90;4.20;98709.00;;;;4976847;28;87845;-65
2023/01/16 08:15:30;;;;;;;0.80;0.67;;;4.30;99.90;4.30;98706.00;;;;4977551;28;87979;-65
2023/01/16 08:17:56;;;;;;;0.40;0.40;;;4.40;99.90;4.50;98694.00;;;;4972700;28;117338;-67
2023/01/16 08:20:22;;;;;;;1.93;0.77;;;4.60;99.90;4.80;98689.00;;;;4978361;28;109059;-65
2023/01/16 08:22:50;;;;;;;0.60;0.60;;;4.80;99.90;5.10;98685.00;;;;4974254;28;88787;-67
2023/01/16 08:25:18;;;;;;;0.90;0.53;;;5.00;99.90;5.30;98680.00;;;;4974740;28;88786;-68
2023/01/16 08:27:44;;;;;;;1.03;0.70;;;5.90;99.90;5.60;98674.00;;;;4983659;28;108405;-67
2023/01/16 08:30:11;;;;;;;1.33;0.80;;;5.50;99.90;5.80;98670.00;;;;4982902;28;87758;-67
2023/01/16 08:32:36;;;;;;;1.37;0.67;;;5.80;99.90;6.00;98669.00;;;;4977067;28;88009;-68
2023/01/16 08:35:04;;;;;;;1.10;0.83;;;5.90;99.90;6.10;98658.00;;;;4974266;28;87868;-69
2023/01/16 08:37:30;;;;;;;0.60;0.60;;;6.20;99.90;6.30;98664.00;;;;4974988;28;88142;-67
2023/01/16 08:39:56;;;;;;;1.53;0.43;;;6.60;99.90;6.40;98644.00;;;;4976621;28;88564;-69
2023/01/16 08:53:24;;;;;;;0.77;0.63;;;7.00;99.90;7.10;98609.00;;;;4986602;28;88043;-67
2023/01/16 08:55:50;;;;;;;1.07;0.63;;;7.10;99.70;7.20;98611.00;;;;4971553;28;117630;-66
2023/01/16 08:58:15;;;;;;;2.37;0.97;;;7.60;99.40;7.30;98594.00;;;;4975955;28;117686;-67
2023/01/16 09:00:41;;;;;;;1.63;0.60;;;7.70;98.70;7.40;98598.00;;;;4975653;28;87847;-69
2023/01/16 09:03:07;;;;;;;0.70;0.50;;;7.50;97.90;7.50;98592.00;;;;4975945;28;87984;-68
2023/01/16 09:05:33;;;;;;;2.83;0.87;;;8.00;96.90;7.60;98586.00;;;;4971071;28;116729;-69
2023/01/16 09:07:59;;;;;;;0.60;0.60;;;7.70;96.50;7.70;98571.00;;;;4970120;28;116591;-67
2023/01/16 09:10:25;;;;;;;1.83;0.73;;;7.70;96.50;7.80;98575.00;;;;4972098;28;87924;-68
2023/01/16 09:15:35;;;;;;;6.97;0.60;;;7.90;95.50;8.00;98574.00;;;;4972031;28;87750;-68
2023/01/16 09:18:01;;;;;;;1.13;0.57;;;8.00;94.50;8.00;98564.00;;;;4971990;28;115785;-67
2023/01/16 09:20:26;;;;;;;3.30;0.33;;;8.10;93.60;8.10;98563.00;;;;4971803;28;87903;-67
2023/01/16 09:23:03;;;;;;;0.60;0.40;;;8.10;93.40;8.20;98559.00;;;;4970498;28;109158;-69
2023/01/16 09:25:31;;;;;;;0.97;0.60;;;8.20;93.60;8.30;98556.00;;;;4970485;28;88892;-67
2023/01/16 09:27:58;;;;;;;4.07;0.83;;;8.40;92.40;8.30;98545.00;;;;4975153;28;88667;-67
2023/01/16 09:30:24;;;;;;;0.93;0.63;;;8.40;91.80;8.40;98548.00;;;;4972258;28;87120;-68
2023/01/16 09:32:50;;;;;;;0.93;0.77;;;8.40;91.80;8.50;98543.00;;;;4974633;28;103618;-68
2023/01/16 09:35:16;;;;;;;1.50;0.90;;;7.90;91.10;8.60;98536.00;;;;4974043;28;117165;-67
2023/01/16 09:37:45;;;;;;;0.60;0.40;;;8.20;90.80;8.60;98535.00;;;;4974561;28;88896;-69
2023/01/16 09:40:19;;;;;;;1.70;0.53;;;8.70;90.50;8.70;98524.00;;;;4972657;28;87965;-67
2023/01/16 09:45:56;;;;;;;2.03;0.60;;;8.80;89.30;8.80;98519.00;;;;4973519;28;87862;-66
2023/01/16 09:48:30;;;;;;;1.03;0.77;;;8.80;88.20;8.80;98519.00;;;;4971166;28;99156;-67
2023/01/16 09:51:02;;;;;;;0.53;0.40;;;8.90;87.20;8.90;98508.00;;;;4975083;28;100433;-68
2023/01/16 09:59:46;;;;;;;0.60;0.40;;;9.20;87.60;9.30;98490.00;;;;4974110;28;87981;-68
2023/01/16 10:02:26;;;;;;;1.13;0.70;;;9.30;84.30;9.40;98486.00;;;;4975971;28;88006;-66
2023/01/16 10:04:56;;;;;;;0.50;0.50;;;9.40;83.10;9.50;98485.00;;;;4975569;28;88801;-67
2023/01/16 10:08:05;;;;;;;1.10;0.37;;;9.50;82.90;9.60;98475.00;;;;4972903;28;92681;-67
2023/01/16 10:10:54;;;;;;;2.33;0.60;;;9.60;80.80;9.60;98477.00;;;;4973323;28;102913;-66
2023/01/16 10:13:46;;;;;;;0.60;0.60;;;9.60;80.40;9.80;98476.00;;;;4965281;28;104005;-67
2023/01/16 10:16:24;;;;;;;0.77;0.67;;;9.70;81.70;10.00;98466.00;;;;4951168;27;99364;-66
2023/01/16 10:19:39;;;;;;;2.10;1.23;;;9.90;79.50;10.10;98464.00;;;;4972843;28;99706;-66
2023/01/16 10:22:39;;;;;;;0.53;0.47;;;10.00;78.70;10.20;98449.00;;;;4958349;28;88318;-67
2023/01/16 10:25:31;;;;;;;0.60;0.40;;;10.10;77.30;10.30;98447.00;;;;4973193;28;104279;-67
2023/01/16 10:28:24;;;;;;;3.67;1.77;;;10.30;77.20;10.40;98454.00;;;;4972866;28;87855;-67
2023/01/16 10:31:23;;;;;;;2.10;1.10;;;10.40;76.40;10.50;98448.00;;;;4970149;28;88085;-68
2023/01/16 10:34:24;;;;;;;4.13;1.77;;;10.50;75.80;10.60;98431.00;;;;4968347;28;89216;-68
2023/01/16 10:36:56;;;;;;;1.13;0.60;;;10.50;74.50;10.60;98430.00;;;;4962932;28;87993;-66
2023/01/16 10:39:33;;;;;;;0.93;0.50;;;10.50;73.60;10.70;98412.00;;;;4971916;28;87882;-67
2023/01/16 10:50:36;;;;;;;0.67;0.47;;;10.80;70.30;10.80;98394.00;;;;4972611;28;88204;-68
2023/01/16 10:53:08;;;;;;;4.47;0.43;;;10.80;70.60;10.90;98397.00;;;;4973112;28;89534;-69
2023/01/16 10:55:35;;;;;;;0.67;0.43;;;10.90;70.50;10.90;98391.00;;;;4971840;28;90309;-69
2023/01/16 10:58:28;;;;;;;0.60;0.40;;;10.90;69.00;10.90;98390.00;;;;4974587;28;99205;-67
2023/01/16 11:01:02;;;;;;;0.70;0.50;;;10.90;69.10;11.00;98385.00;;;;4971295;28;89005;-69
2023/01/16 11:03:43;;;;;;;0.70;0.40;;;11.00;69.40;11.10;98371.00;;;;4976565;28;87686;-67
2023/01/16 11:06:15;;;;;;;0.37;0.30;;;11.10;70.10;11.30;98372.00;;;;4974258;28;88173;-67
2023/01/16 11:08:43;;;;;;;0.53;0.50;;;11.20;70.40;11.50;98361.00;;;;4971743;28;88128;-67
2023/01/16 11:19:30;;;;;;;2.10;0.50;;;11.60;68.30;11.70;98335.00;;;;4975894;28;86979;-68
2023/01/16 11:22:07;;;;;;;1.13;0.33;;;11.70;65.40;11.70;98330.00;;;;4970819;28;89048;-69
2023/01/16 11:24:36;;;;;;;0.30;0.23;;;11.70;65.80;11.80;98319.00;;;;4968352;28;87892;-69
2023/01/16 11:27:09;;;;;;;0.30;0.20;;;11.70;66.50;11.90;98320.00;;;;4968210;28;89097;-67
2023/01/16 11:29:39;;;;;;;0.47;0.30;;;11.80;66.30;12.00;98308.00;;;;4967944;28;87956;-69
2023/01/16 11:32:12;;;;;;;0.70;0.30;;;11.90;64.50;11.90;98307.00;;;;4971163;28;88121;-68
2023/01/16 11:34:45;;;;;;;1.17;0.50;;;11.90;64.50;11.80;98295.00;;;;4968260;28;108815;-66
2023/01/16 11:37:14;;;;;;;0.70;0.40;;;11.80;64.70;11.80;98285.00;;;;4966846;28;95583;-69
2023/01/16 11:39:41;;;;;;;0.87;0.30;;;11.80;64.70;11.80;98281.00;;;;4965179;28;90555;-68
2023/01/16 11:46:02;;;;;;;1.13;0.57;;;11.80;64.80;11.80;98278.00;;;;4970963;28;108119;-67
2023/01/16 11:48:23;;;;;;;0.30;0.30;;;11.70;63.40;11.40;98260.00;;;;4971122;28;87976;-68
2023/01/16 11:50:58;;;;;;;2.60;0.93;;;11.50;64.60;11.30;98251.00;;;;4971515;28;87835;-69
2023/01/16 11:53:33;;;;;;;3.07;0.50;;;11.30;64.50;11.30;98253.00;;;;4967873;28;108012;-69
2023/01/16 11:56:23;;;;;;;0.33;0.27;;;11.30;65.50;11.40;98243.00;;;;4984101;27;89254;-69
2023/01/16 11:59:10;;;;;;;0.43;0.43;;;11.30;66.00;11.70;98238.00;;;;4985317;27;108497;-67
2023/01/16 12:04:29;;;;;;;0.70;0.50;;;11.60;65.10;11.70;98233.00;;;;4970917;28;87778;-67
2023/01/16 12:07:21;;;;;;;0.33;0.23;;;11.60;64.70;11.60;98217.00;;;;4969747;28;88744;-69
2023/01/16 12:10:05;;;;;;;0.77;0.40;;;11.60;64.30;11.80;98212.00;;;;4970851;28;111790;-69
2023/01/16 12:15:51;;;;;;;0.60;0.50;;;11.70;64.70;11.70;98195.00;;;;4969943;28;88096;-67
2023/01/16 12:18:35;;;;;;;1.17;0.60;;;11.80;63.00;11.60;98191.00;;;;4951017;28;98311;-68
2023/01/16 12:21:23;;;;;;;4.97;1.10;;;11.60;62.90;11.60;98182.00;;;;4970867;28;88953;-69
2023/01/16 12:24:31;;;;;;;1.57;0.67;;;11.60;64.00;11.80;98181.00;;;;4971448;28;87954;-68
2023/01/16 12:27:40;;;;;;;0.60;0.50;;;11.70;63.80;11.90;98183.00;;;;4971247;28;88171;-66